Aurora, CO (80016)

9:01 PM MST on December 27, 2014 (GMT -0700)
Greenfield | Change Station
CLOSE
Current Station
Personal Weather Station
Location: Centennial, CO
Elevation: 5810 ft
Nearby Weather Stations

Elev 5810 ft 39.60 °N, 104.75 °W | Updated 3 seconds ago

Partly Cloudy
Partly Cloudy
18.4 °F
Feels Like 12 °F
N
4.3
Wind Variable Wind from ESE
Gusts 4.3 mph

Today
High -- | Low -- °F
--% Chance of Precip.
Yesterday
High -- | Low -- °F
Precip. -- in
7:18 AM 4:41 PM
Waxing Crescent, 43% visible
Pressure 30.27 in
Visibility 10.0 miles
Clouds Few 12000 ft
Windchill 12 °F
Dew Point 7 °F
Humidity 61%
Rainfall 0.05 in
Snow Depth Not available.
UV 0 out of 12
Pollen .10 out of 12
Air Quality Not available.
Flu Activity Not available.
METAR KAPA 280353Z 15008KT 10SM FEW120 M09/M14 A3003 RMK AO2 SLP248 T10941139

More Conditions Fewer Conditions

Pressure 30.27 in
Visibility 10.0 miles
Clouds Few 12000 ft
Windchill 12 °F
Dew Point 7 °F
Humidity 61%
Rainfall 0.05 in
Snow Depth Not available.
UV 0 out of 12
Pollen .10 out of 12
Air Quality Not available.
Flu Activity Not available.
METAR KAPA 280353Z 15008KT 10SM FEW120 M09/M14 A3003 RMK AO2 SLP248 T10941139

More Conditions Fewer Conditions

10-Day Weather Forecast

Almanac

Astronomy

Dec. 27, 2014 Rise Set
Actual Time
Civil Twilight
Nautical Twilight
Astronomical Twilight
Moon
Length of Visible Light
Length of Day
Tomorrow will be .
, % of the Moon is Illuminated

Today's Extremes

State Highs State Lows

Community

WunderPhotos

Upload Photos

1,781,187 photos uploaded!

WunderBlogs® & News

Nearby

Air Quality

  Air Quality AQ Index Pollutant
Not available.

Snow Depth

Station Depth Elevation

Earthquake Activity

City Distance Mag. Time & Date
Minimum magnitude displayed is 2.5.

Coastal Water Temperatures

Place Temperature

Nearby Weather Stations